sensor_id;sensor_type;location;lat;lon;timestamp;P1;durP1;ratioP1;P2;durP2;ratioP2
57111;SDS011;42992;49.084;19.300;2023-04-03T00:01:14;5.05;;;2.67;;
57111;SDS011;42992;49.084;19.300;2023-04-03T00:03:41;4.80;;;2.70;;
57111;SDS011;42992;49.084;19.300;2023-04-03T00:06:14;6.90;;;2.60;;
57111;SDS011;42992;49.084;19.300;2023-04-03T00:08:46;5.13;;;2.65;;
57111;SDS011;42992;49.084;19.300;2023-04-03T00:11:15;5.75;;;2.90;;
57111;SDS011;42992;49.084;19.300;2023-04-03T00:13:43;4.10;;;2.20;;
57111;SDS011;42992;49.084;19.300;2023-04-03T00:16:14;5.75;;;2.70;;
57111;SDS011;42992;49.084;19.300;2023-04-03T00:18:39;4.85;;;2.20;;
57111;SDS011;42992;49.084;19.300;2023-04-03T00:21:06;6.03;;;3.03;;
57111;SDS011;42992;49.084;19.300;2023-04-03T00:23:33;4.78;;;2.47;;
57111;SDS011;42992;49.084;19.300;2023-04-03T00:25:58;5.53;;;2.67;;
57111;SDS011;42992;49.084;19.300;2023-04-03T00:28:26;6.35;;;2.70;;
57111;SDS011;42992;49.084;19.300;2023-04-03T00:30:52;4.68;;;2.35;;
57111;SDS011;42992;49.084;19.300;2023-04-03T00:33:21;4.80;;;2.40;;
57111;SDS011;42992;49.084;19.300;2023-04-03T00:35:47;4.55;;;2.28;;
57111;SDS011;42992;49.084;19.300;2023-04-03T00:38:13;4.70;;;2.50;;
57111;SDS011;42992;49.084;19.300;2023-04-03T00:40:43;5.15;;;2.50;;
57111;SDS011;42992;49.084;19.300;2023-04-03T00:43:18;3.83;;;2.20;;
57111;SDS011;42992;49.084;19.300;2023-04-03T00:45:48;4.30;;;2.15;;
57111;SDS011;42992;49.084;19.300;2023-04-03T00:48:20;3.90;;;1.90;;
57111;SDS011;42992;49.084;19.300;2023-04-03T00:50:46;3.80;;;2.03;;
57111;SDS011;42992;49.084;19.300;2023-04-03T00:53:13;5.28;;;1.83;;
57111;SDS011;42992;49.084;19.300;2023-04-03T00:55:40;4.75;;;2.47;;
57111;SDS011;42992;49.084;19.300;2023-04-03T00:58:06;3.55;;;1.85;;
57111;SDS011;42992;49.084;19.300;2023-04-03T01:00:35;3.20;;;1.60;;
57111;SDS011;42992;49.084;19.300;2023-04-03T01:03:03;4.07;;;1.98;;
57111;SDS011;42992;49.084;19.300;2023-04-03T01:05:30;4.03;;;2.00;;
57111;SDS011;42992;49.084;19.300;2023-04-03T01:07:58;3.97;;;1.98;;
57111;SDS011;42992;49.084;19.300;2023-04-03T01:10:24;4.25;;;2.15;;
57111;SDS011;42992;49.084;19.300;2023-04-03T01:12:51;3.67;;;1.77;;
57111;SDS011;42992;49.084;19.300;2023-04-03T01:15:24;3.42;;;1.60;;
57111;SDS011;42992;49.084;19.300;2023-04-03T01:17:54;3.90;;;1.80;;
57111;SDS011;42992;49.084;19.300;2023-04-03T01:25:52;3.50;;;1.60;;
57111;SDS011;42992;49.084;19.300;2023-04-03T01:28:24;4.70;;;1.50;;
57111;SDS011;42992;49.084;19.300;2023-04-03T01:33:48;3.15;;;1.20;;
57111;SDS011;42992;49.084;19.300;2023-04-03T01:36:31;2.75;;;1.33;;
57111;SDS011;42992;49.084;19.300;2023-04-03T01:39:00;3.17;;;1.40;;
57111;SDS011;42992;49.084;19.300;2023-04-03T01:41:26;3.35;;;1.60;;
57111;SDS011;42992;49.084;19.300;2023-04-03T01:43:53;3.92;;;1.45;;
57111;SDS011;42992;49.084;19.300;2023-04-03T01:46:22;3.17;;;1.48;;
57111;SDS011;42992;49.084;19.300;2023-04-03T01:48:47;2.97;;;1.40;;
57111;SDS011;42992;49.084;19.300;2023-04-03T01:51:15;2.80;;;1.33;;
57111;SDS011;42992;49.084;19.300;2023-04-03T01:53:41;3.67;;;1.40;;
57111;SDS011;42992;49.084;19.300;2023-04-03T01:56:09;3.65;;;1.38;;
57111;SDS011;42992;49.084;19.300;2023-04-03T01:58:36;2.80;;;1.30;;
57111;SDS011;42992;49.084;19.300;2023-04-03T02:01:07;3.78;;;1.45;;
57111;SDS011;42992;49.084;19.300;2023-04-03T02:03:32;2.47;;;1.20;;
57111;SDS011;42992;49.084;19.300;2023-04-03T02:05:59;2.53;;;1.20;;
57111;SDS011;42992;49.084;19.300;2023-04-03T02:08:25;2.20;;;1.00;;
57111;SDS011;42992;49.084;19.300;2023-04-03T02:10:53;2.80;;;1.30;;
57111;SDS011;42992;49.084;19.300;2023-04-03T02:13:23;2.50;;;1.10;;
57111;SDS011;42992;49.084;19.300;2023-04-03T02:15:55;2.10;;;0.82;;
57111;SDS011;42992;49.084;19.300;2023-04-03T02:18:23;2.65;;;0.80;;
57111;SDS011;42992;49.084;19.300;2023-04-03T02:20:48;2.13;;;0.70;;
57111;SDS011;42992;49.084;19.300;2023-04-03T02:23:15;1.98;;;0.98;;
57111;SDS011;42992;49.084;19.300;2023-04-03T02:25:41;1.75;;;0.80;;
57111;SDS011;42992;49.084;19.300;2023-04-03T02:28:06;1.63;;;0.80;;
57111;SDS011;42992;49.084;19.300;2023-04-03T02:30:37;3.10;;;0.70;;
57111;SDS011;42992;49.084;19.300;2023-04-03T02:33:05;1.38;;;0.60;;
57111;SDS011;42992;49.084;19.300;2023-04-03T02:35:31;3.35;;;0.70;;
57111;SDS011;42992;49.084;19.300;2023-04-03T02:38:00;1.38;;;0.65;;
57111;SDS011;42992;49.084;19.300;2023-04-03T02:40:26;1.40;;;0.63;;
57111;SDS011;42992;49.084;19.300;2023-04-03T02:42:52;3.53;;;0.70;;
57111;SDS011;42992;49.084;19.300;2023-04-03T02:45:17;1.23;;;0.60;;
57111;SDS011;42992;49.084;19.300;2023-04-03T02:47:43;1.65;;;0.70;;
57111;SDS011;42992;49.084;19.300;2023-04-03T02:50:09;1.48;;;0.60;;
57111;SDS011;42992;49.084;19.300;2023-04-03T02:52:38;1.42;;;0.70;;
57111;SDS011;42992;49.084;19.300;2023-04-03T02:55:05;1.27;;;0.63;;
57111;SDS011;42992;49.084;19.300;2023-04-03T02:57:31;1.27;;;0.57;;
57111;SDS011;42992;49.084;19.300;2023-04-03T03:00:02;1.58;;;0.60;;
57111;SDS011;42992;49.084;19.300;2023-04-03T03:02:28;1.13;;;0.55;;
57111;SDS011;42992;49.084;19.300;2023-04-03T03:04:55;1.00;;;0.50;;
57111;SDS011;42992;49.084;19.300;2023-04-03T03:07:21;1.15;;;0.52;;
57111;SDS011;42992;49.084;19.300;2023-04-03T03:09:46;3.72;;;0.77;;
57111;SDS011;42992;49.084;19.300;2023-04-03T03:12:13;1.20;;;0.50;;
57111;SDS011;42992;49.084;19.300;2023-04-03T03:14:39;1.75;;;0.50;;
57111;SDS011;42992;49.084;19.300;2023-04-03T03:17:05;1.58;;;0.70;;
57111;SDS011;42992;49.084;19.300;2023-04-03T03:19:31;1.70;;;0.70;;
57111;SDS011;42992;49.084;19.300;2023-04-03T03:21:57;1.38;;;0.50;;
57111;SDS011;42992;49.084;19.300;2023-04-03T03:24:23;2.25;;;0.55;;
57111;SDS011;42992;49.084;19.300;2023-04-03T03:26:51;2.80;;;0.98;;
57111;SDS011;42992;49.084;19.300;2023-04-03T03:29:19;0.82;;;0.47;;
57111;SDS011;42992;49.084;19.300;2023-04-03T03:31:45;1.30;;;0.60;;
57111;SDS011;42992;49.084;19.300;2023-04-03T03:34:13;5.80;;;2.58;;
57111;SDS011;42992;49.084;19.300;2023-04-03T03:36:40;3.55;;;0.98;;
57111;SDS011;42992;49.084;19.300;2023-04-03T03:39:15;1.52;;;0.73;;
57111;SDS011;42992;49.084;19.300;2023-04-03T03:41:42;2.17;;;0.73;;
57111;SDS011;42992;49.084;19.300;2023-04-03T03:44:11;1.55;;;0.63;;
57111;SDS011;42992;49.084;19.300;2023-04-03T03:46:38;2.42;;;0.90;;
57111;SDS011;42992;49.084;19.300;2023-04-03T03:49:05;4.90;;;0.88;;
57111;SDS011;42992;49.084;19.300;2023-04-03T03:51:34;2.50;;;0.70;;
57111;SDS011;42992;49.084;19.300;2023-04-03T03:54:01;3.55;;;0.75;;
57111;SDS011;42992;49.084;19.300;2023-04-03T03:56:28;2.03;;;0.70;;
57111;SDS011;42992;49.084;19.300;2023-04-03T03:58:55;1.70;;;0.55;;
57111;SDS011;42992;49.084;19.300;2023-04-03T04:01:21;1.38;;;0.52;;
57111;SDS011;42992;49.084;19.300;2023-04-03T04:03:54;1.30;;;0.60;;
57111;SDS011;42992;49.084;19.300;2023-04-03T04:06:24;1.67;;;0.70;;
57111;SDS011;42992;49.084;19.300;2023-04-03T04:09:16;1.42;;;0.52;;
57111;SDS011;42992;49.084;19.300;2023-04-03T04:11:52;1.73;;;0.50;;
57111;SDS011;42992;49.084;19.300;2023-04-03T04:14:23;2.15;;;0.65;;
57111;SDS011;42992;49.084;19.300;2023-04-03T04:16:52;1.30;;;0.60;;
57111;SDS011;42992;49.084;19.300;2023-04-03T04:19:19;4.80;;;0.70;;
57111;SDS011;42992;49.084;19.300;2023-04-03T04:21:52;3.72;;;0.70;;
57111;SDS011;42992;49.084;19.300;2023-04-03T04:29:50;1.70;;;0.70;;
57111;SDS011;42992;49.084;19.300;2023-04-03T04:35:21;4.28;;;1.00;;
57111;SDS011;42992;49.084;19.300;2023-04-03T04:40:44;3.35;;;1.45;;
57111;SDS011;42992;49.084;19.300;2023-04-03T04:43:35;2.95;;;1.25;;
57111;SDS011;42992;49.084;19.300;2023-04-03T04:46:01;2.05;;;0.70;;
57111;SDS011;42992;49.084;19.300;2023-04-03T04:48:29;1.20;;;0.55;;
57111;SDS011;42992;49.084;19.300;2023-04-03T04:50:58;1.75;;;0.55;;
57111;SDS011;42992;49.084;19.300;2023-04-03T04:53:24;0.85;;;0.50;;
57111;SDS011;42992;49.084;19.300;2023-04-03T04:55:50;2.50;;;0.73;;
57111;SDS011;42992;49.084;19.300;2023-04-03T04:58:21;1.40;;;0.60;;
57111;SDS011;42992;49.084;19.300;2023-04-03T05:03:26;1.33;;;0.50;;
57111;SDS011;42992;49.084;19.300;2023-04-03T05:06:00;1.55;;;0.52;;
57111;SDS011;42992;49.084;19.300;2023-04-03T05:08:27;1.65;;;0.63;;
57111;SDS011;42992;49.084;19.300;2023-04-03T05:10:53;2.97;;;0.80;;
57111;SDS011;42992;49.084;19.300;2023-04-03T05:13:19;1.90;;;0.70;;
57111;SDS011;42992;49.084;19.300;2023-04-03T05:15:44;1.67;;;0.70;;
57111;SDS011;42992;49.084;19.300;2023-04-03T05:18:10;1.55;;;0.60;;
57111;SDS011;42992;49.084;19.300;2023-04-03T05:20:35;1.33;;;0.55;;
57111;SDS011;42992;49.084;19.300;2023-04-03T05:23:01;1.73;;;0.68;;
57111;SDS011;42992;49.084;19.300;2023-04-03T05:25:27;2.55;;;0.60;;
57111;SDS011;42992;49.084;19.300;2023-04-03T05:27:52;7.30;;;0.80;;
57111;SDS011;42992;49.084;19.300;2023-04-03T05:30:18;3.63;;;0.60;;
57111;SDS011;42992;49.084;19.300;2023-04-03T05:32:51;1.75;;;0.63;;
57111;SDS011;42992;49.084;19.300;2023-04-03T05:35:19;1.27;;;0.50;;
57111;SDS011;42992;49.084;19.300;2023-04-03T05:37:46;1.55;;;0.60;;
57111;SDS011;42992;49.084;19.300;2023-04-03T05:40:11;0.90;;;0.50;;
57111;SDS011;42992;49.084;19.300;2023-04-03T05:42:41;2.13;;;0.70;;
57111;SDS011;42992;49.084;19.300;2023-04-03T05:45:21;2.25;;;0.50;;
57111;SDS011;42992;49.084;19.300;2023-04-03T05:47:46;4.05;;;1.00;;
57111;SDS011;42992;49.084;19.300;2023-04-03T05:50:13;2.90;;;0.70;;
57111;SDS011;42992;49.084;19.300;2023-04-03T05:55:40;4.47;;;1.00;;
57111;SDS011;42992;49.084;19.300;2023-04-03T05:58:07;3.60;;;0.80;;
57111;SDS011;42992;49.084;19.300;2023-04-03T06:00:35;6.38;;;1.30;;
57111;SDS011;42992;49.084;19.300;2023-04-03T06:03:01;3.53;;;0.90;;
57111;SDS011;42992;49.084;19.300;2023-04-03T06:05:26;2.00;;;0.80;;
57111;SDS011;42992;49.084;19.300;2023-04-03T06:07:53;1.85;;;0.80;;
57111;SDS011;42992;49.084;19.300;2023-04-03T06:10:20;3.13;;;0.70;;
57111;SDS011;42992;49.084;19.300;2023-04-03T06:12:46;1.88;;;0.80;;
57111;SDS011;42992;49.084;19.300;2023-04-03T06:15:11;4.38;;;0.88;;
57111;SDS011;42992;49.084;19.300;2023-04-03T06:17:37;1.90;;;0.70;;
57111;SDS011;42992;49.084;19.300;2023-04-03T06:20:02;1.52;;;0.65;;
57111;SDS011;42992;49.084;19.300;2023-04-03T06:22:28;2.00;;;0.95;;
57111;SDS011;42992;49.084;19.300;2023-04-03T06:24:55;7.50;;;2.97;;
57111;SDS011;42992;49.084;19.300;2023-04-03T06:27:20;2.78;;;1.00;;
57111;SDS011;42992;49.084;19.300;2023-04-03T06:29:47;3.80;;;0.90;;
57111;SDS011;42992;49.084;19.300;2023-04-03T06:32:14;3.22;;;1.00;;
57111;SDS011;42992;49.084;19.300;2023-04-03T06:34:39;4.60;;;1.90;;
57111;SDS011;42992;49.084;19.300;2023-04-03T06:37:05;2.78;;;1.20;;
57111;SDS011;42992;49.084;19.300;2023-04-03T06:39:30;2.50;;;1.05;;
57111;SDS011;42992;49.084;19.300;2023-04-03T06:41:55;3.55;;;1.00;;
57111;SDS011;42992;49.084;19.300;2023-04-03T06:44:22;5.78;;;1.00;;
57111;SDS011;42992;49.084;19.300;2023-04-03T06:46:47;2.63;;;1.08;;
57111;SDS011;42992;49.084;19.300;2023-04-03T06:49:13;2.35;;;0.90;;
57111;SDS011;42992;49.084;19.300;2023-04-03T06:51:39;3.05;;;1.15;;
57111;SDS011;42992;49.084;19.300;2023-04-03T06:54:05;3.70;;;0.80;;
57111;SDS011;42992;49.084;19.300;2023-04-03T06:56:31;2.90;;;1.10;;
57111;SDS011;42992;49.084;19.300;2023-04-03T06:58:57;2.05;;;0.80;;
57111;SDS011;42992;49.084;19.300;2023-04-03T07:01:26;5.05;;;0.98;;
57111;SDS011;42992;49.084;19.300;2023-04-03T07:03:52;2.75;;;0.80;;
57111;SDS011;42992;49.084;19.300;2023-04-03T07:06:18;2.55;;;1.15;;
57111;SDS011;42992;49.084;19.300;2023-04-03T07:08:44;2.63;;;1.00;;
57111;SDS011;42992;49.084;19.300;2023-04-03T07:11:10;2.72;;;0.82;;
57111;SDS011;42992;49.084;19.300;2023-04-03T07:13:36;4.35;;;1.20;;
57111;SDS011;42992;49.084;19.300;2023-04-03T07:16:03;7.65;;;1.00;;
57111;SDS011;42992;49.084;19.300;2023-04-03T07:18:30;2.30;;;0.98;;
57111;SDS011;42992;49.084;19.300;2023-04-03T07:20:55;7.75;;;1.17;;
57111;SDS011;42992;49.084;19.300;2023-04-03T07:23:22;2.60;;;1.10;;
57111;SDS011;42992;49.084;19.300;2023-04-03T07:25:48;4.07;;;1.52;;
57111;SDS011;42992;49.084;19.300;2023-04-03T07:28:15;3.53;;;0.95;;
57111;SDS011;42992;49.084;19.300;2023-04-03T07:30:46;4.45;;;1.00;;
57111;SDS011;42992;49.084;19.300;2023-04-03T07:33:12;3.55;;;1.35;;
57111;SDS011;42992;49.084;19.300;2023-04-03T07:35:39;4.20;;;1.33;;
57111;SDS011;42992;49.084;19.300;2023-04-03T07:38:14;7.57;;;1.83;;
57111;SDS011;42992;49.084;19.300;2023-04-03T07:40:39;3.60;;;1.25;;
57111;SDS011;42992;49.084;19.300;2023-04-03T07:43:05;2.90;;;1.30;;
57111;SDS011;42992;49.084;19.300;2023-04-03T07:45:31;2.58;;;1.02;;
57111;SDS011;42992;49.084;19.300;2023-04-03T07:47:59;4.50;;;1.13;;
57111;SDS011;42992;49.084;19.300;2023-04-03T07:50:25;3.28;;;1.30;;
57111;SDS011;42992;49.084;19.300;2023-04-03T07:52:52;8.10;;;1.67;;
57111;SDS011;42992;49.084;19.300;2023-04-03T07:55:19;3.90;;;1.48;;
57111;SDS011;42992;49.084;19.300;2023-04-03T07:57:44;4.93;;;1.10;;
57111;SDS011;42992;49.084;19.300;2023-04-03T08:00:10;3.90;;;1.00;;
57111;SDS011;42992;49.084;19.300;2023-04-03T08:02:37;3.90;;;1.20;;
57111;SDS011;42992;49.084;19.300;2023-04-03T08:05:02;5.45;;;0.80;;
57111;SDS011;42992;49.084;19.300;2023-04-03T08:07:28;2.83;;;1.08;;
57111;SDS011;42992;49.084;19.300;2023-04-03T08:10:00;3.70;;;1.58;;
57111;SDS011;42992;49.084;19.300;2023-04-03T08:12:25;1.45;;;0.75;;
57111;SDS011;42992;49.084;19.300;2023-04-03T08:14:53;2.88;;;1.20;;
57111;SDS011;42992;49.084;19.300;2023-04-03T08:17:18;2.33;;;0.80;;
57111;SDS011;42992;49.084;19.300;2023-04-03T08:19:44;3.00;;;1.10;;
57111;SDS011;42992;49.084;19.300;2023-04-03T08:22:09;3.00;;;0.90;;
57111;SDS011;42992;49.084;19.300;2023-04-03T08:24:35;2.63;;;1.20;;
57111;SDS011;42992;49.084;19.300;2023-04-03T08:27:02;7.53;;;3.45;;
57111;SDS011;42992;49.084;19.300;2023-04-03T08:29:27;4.13;;;1.30;;
57111;SDS011;42992;49.084;19.300;2023-04-03T08:31:56;3.35;;;1.50;;
57111;SDS011;42992;49.084;19.300;2023-04-03T08:34:22;2.95;;;1.23;;
57111;SDS011;42992;49.084;19.300;2023-04-03T08:36:47;4.57;;;1.48;;
57111;SDS011;42992;49.084;19.300;2023-04-03T08:39:13;5.60;;;2.38;;
57111;SDS011;42992;49.084;19.300;2023-04-03T08:41:39;2.47;;;1.20;;
57111;SDS011;42992;49.084;19.300;2023-04-03T08:52:22;2.88;;;1.20;;
57111;SDS011;42992;49.084;19.300;2023-04-03T08:54:50;3.13;;;1.13;;
57111;SDS011;42992;49.084;19.300;2023-04-03T08:57:16;3.72;;;1.40;;
57111;SDS011;42992;49.084;19.300;2023-04-03T08:59:45;3.40;;;1.55;;
57111;SDS011;42992;49.084;19.300;2023-04-03T09:02:24;2.85;;;1.25;;
57111;SDS011;42992;49.084;19.300;2023-04-03T09:04:59;2.50;;;1.10;;
57111;SDS011;42992;49.084;19.300;2023-04-03T09:07:33;3.03;;;1.35;;
57111;SDS011;42992;49.084;19.300;2023-04-03T09:10:01;4.78;;;2.05;;
57111;SDS011;42992;49.084;19.300;2023-04-03T09:12:32;3.72;;;1.60;;
57111;SDS011;42992;49.084;19.300;2023-04-03T09:22:55;3.42;;;1.17;;
57111;SDS011;42992;49.084;19.300;2023-04-03T09:27:46;2.95;;;1.25;;
57111;SDS011;42992;49.084;19.300;2023-04-03T09:30:16;3.50;;;1.50;;
57111;SDS011;42992;49.084;19.300;2023-04-03T09:32:46;2.50;;;0.90;;
57111;SDS011;42992;49.084;19.300;2023-04-03T09:35:17;3.15;;;1.40;;
57111;SDS011;42992;49.084;19.300;2023-04-03T09:37:45;3.45;;;1.10;;
57111;SDS011;42992;49.084;19.300;2023-04-03T09:42:53;4.22;;;1.10;;
57111;SDS011;42992;49.084;19.300;2023-04-03T09:50:35;4.40;;;1.40;;
57111;SDS011;42992;49.084;19.300;2023-04-03T09:53:04;4.75;;;1.50;;
57111;SDS011;42992;49.084;19.300;2023-04-03T09:55:30;3.55;;;1.40;;
57111;SDS011;42992;49.084;19.300;2023-04-03T09:57:57;4.63;;;1.33;;
57111;SDS011;42992;49.084;19.300;2023-04-03T10:00:35;3.30;;;1.30;;
57111;SDS011;42992;49.084;19.300;2023-04-03T10:03:05;4.07;;;1.67;;
57111;SDS011;42992;49.084;19.300;2023-04-03T10:05:36;3.63;;;1.55;;
57111;SDS011;42992;49.084;19.300;2023-04-03T10:10:47;6.50;;;1.50;;
57111;SDS011;42992;49.084;19.300;2023-04-03T10:13:21;6.72;;;1.45;;
57111;SDS011;42992;49.084;19.300;2023-04-03T10:15:51;4.70;;;1.92;;
57111;SDS011;42992;49.084;19.300;2023-04-03T10:18:37;4.43;;;1.50;;
57111;SDS011;42992;49.084;19.300;2023-04-03T10:21:10;3.50;;;1.50;;
57111;SDS011;42992;49.084;19.300;2023-04-03T10:23:45;4.50;;;1.40;;
57111;SDS011;42992;49.084;19.300;2023-04-03T10:34:33;4.82;;;1.42;;
57111;SDS011;42992;49.084;19.300;2023-04-03T10:37:11;4.25;;;1.35;;
57111;SDS011;42992;49.084;19.300;2023-04-03T10:42:25;3.70;;;1.23;;
57111;SDS011;42992;49.084;19.300;2023-04-03T10:52:48;4.20;;;1.40;;
57111;SDS011;42992;49.084;19.300;2023-04-03T10:57:59;4.30;;;1.30;;
57111;SDS011;42992;49.084;19.300;2023-04-03T11:00:31;3.58;;;1.25;;
57111;SDS011;42992;49.084;19.300;2023-04-03T11:03:00;4.63;;;1.67;;
57111;SDS011;42992;49.084;19.300;2023-04-03T11:05:30;4.85;;;1.88;;
57111;SDS011;42992;49.084;19.300;2023-04-03T11:07:57;3.10;;;1.02;;
57111;SDS011;42992;49.084;19.300;2023-04-03T11:10:36;3.53;;;1.30;;
57111;SDS011;42992;49.084;19.300;2023-04-03T11:15:38;4.47;;;1.67;;
57111;SDS011;42992;49.084;19.300;2023-04-03T11:18:05;4.47;;;1.30;;
57111;SDS011;42992;49.084;19.300;2023-04-03T11:20:40;5.75;;;1.40;;
57111;SDS011;42992;49.084;19.300;2023-04-03T11:29:02;5.38;;;1.70;;
57111;SDS011;42992;49.084;19.300;2023-04-03T11:34:33;3.55;;;1.30;;
57111;SDS011;42992;49.084;19.300;2023-04-03T11:37:02;4.03;;;1.67;;
57111;SDS011;42992;49.084;19.300;2023-04-03T11:39:31;5.43;;;1.40;;
57111;SDS011;42992;49.084;19.300;2023-04-03T11:44:39;5.53;;;2.00;;
57111;SDS011;42992;49.084;19.300;2023-04-03T11:47:08;3.45;;;1.35;;
57111;SDS011;42992;49.084;19.300;2023-04-03T12:05:52;4.80;;;1.60;;
57111;SDS011;42992;49.084;19.300;2023-04-03T12:08:29;6.15;;;1.40;;
57111;SDS011;42992;49.084;19.300;2023-04-03T12:24:57;4.55;;;1.60;;
57111;SDS011;42992;49.084;19.300;2023-04-03T12:30:18;4.70;;;1.63;;
57111;SDS011;42992;49.084;19.300;2023-04-03T12:32:58;4.75;;;2.05;;
57111;SDS011;42992;49.084;19.300;2023-04-03T12:35:30;5.47;;;2.45;;
57111;SDS011;42992;49.084;19.300;2023-04-03T12:38:14;3.40;;;1.30;;
57111;SDS011;42992;49.084;19.300;2023-04-03T12:40:53;3.63;;;1.48;;
57111;SDS011;42992;49.084;19.300;2023-04-03T12:48:48;6.88;;;1.92;;
57111;SDS011;42992;49.084;19.300;2023-04-03T12:54:16;4.93;;;2.00;;
57111;SDS011;42992;49.084;19.300;2023-04-03T12:56:45;5.32;;;1.90;;
57111;SDS011;42992;49.084;19.300;2023-04-03T12:59:39;5.57;;;2.13;;
57111;SDS011;42992;49.084;19.300;2023-04-03T13:11:49;4.72;;;1.85;;
57111;SDS011;42992;49.084;19.300;2023-04-03T13:14:22;7.70;;;2.30;;
57111;SDS011;42992;49.084;19.300;2023-04-03T13:19:40;5.85;;;2.20;;
57111;SDS011;42992;49.084;19.300;2023-04-03T13:22:32;7.75;;;2.13;;
57111;SDS011;42992;49.084;19.300;2023-04-03T13:25:21;4.43;;;1.75;;
57111;SDS011;42992;49.084;19.300;2023-04-03T13:28:06;9.85;;;1.70;;
57111;SDS011;42992;49.084;19.300;2023-04-03T13:30:34;4.57;;;1.20;;
57111;SDS011;42992;49.084;19.300;2023-04-03T13:33:17;5.78;;;1.30;;
57111;SDS011;42992;49.084;19.300;2023-04-03T13:35:47;6.28;;;1.60;;
57111;SDS011;42992;49.084;19.300;2023-04-03T13:41:21;5.63;;;1.52;;
57111;SDS011;42992;49.084;19.300;2023-04-03T13:46:59;6.68;;;1.40;;
57111;SDS011;42992;49.084;19.300;2023-04-03T13:49:43;2.38;;;0.80;;
57111;SDS011;42992;49.084;19.300;2023-04-03T13:55:11;3.92;;;1.02;;
57111;SDS011;42992;49.084;19.300;2023-04-03T13:57:49;7.53;;;1.60;;
57111;SDS011;42992;49.084;19.300;2023-04-03T14:00:21;3.67;;;1.10;;
57111;SDS011;42992;49.084;19.300;2023-04-03T14:02:48;4.10;;;1.08;;
57111;SDS011;42992;49.084;19.300;2023-04-03T14:05:13;3.05;;;1.25;;
57111;SDS011;42992;49.084;19.300;2023-04-03T14:07:41;3.42;;;1.27;;
57111;SDS011;42992;49.084;19.300;2023-04-03T14:10:07;2.97;;;1.30;;
57111;SDS011;42992;49.084;19.300;2023-04-03T14:12:33;2.80;;;1.10;;
57111;SDS011;42992;49.084;19.300;2023-04-03T14:15:00;2.78;;;1.25;;
57111;SDS011;42992;49.084;19.300;2023-04-03T14:17:27;4.00;;;1.80;;
57111;SDS011;42992;49.084;19.300;2023-04-03T14:19:53;4.30;;;1.40;;
57111;SDS011;42992;49.084;19.300;2023-04-03T14:22:21;5.00;;;1.10;;
57111;SDS011;42992;49.084;19.300;2023-04-03T14:24:51;2.45;;;0.90;;
57111;SDS011;42992;49.084;19.300;2023-04-03T14:27:21;2.70;;;1.23;;
57111;SDS011;42992;49.084;19.300;2023-04-03T14:29:47;4.68;;;1.48;;
57111;SDS011;42992;49.084;19.300;2023-04-03T14:32:14;6.82;;;1.35;;
57111;SDS011;42992;49.084;19.300;2023-04-03T14:34:39;3.47;;;1.55;;
57111;SDS011;42992;49.084;19.300;2023-04-03T14:37:09;3.35;;;1.20;;
57111;SDS011;42992;49.084;19.300;2023-04-03T14:39:37;2.80;;;1.05;;
57111;SDS011;42992;49.084;19.300;2023-04-03T14:42:03;3.30;;;1.27;;
57111;SDS011;42992;49.084;19.300;2023-04-03T14:44:29;5.10;;;1.38;;
57111;SDS011;42992;49.084;19.300;2023-04-03T14:46:56;4.30;;;1.77;;
57111;SDS011;42992;49.084;19.300;2023-04-03T14:49:23;3.30;;;1.30;;
57111;SDS011;42992;49.084;19.300;2023-04-03T14:51:49;3.60;;;1.70;;
57111;SDS011;42992;49.084;19.300;2023-04-03T14:54:17;4.43;;;2.13;;
57111;SDS011;42992;49.084;19.300;2023-04-03T14:56:44;4.70;;;1.85;;
57111;SDS011;42992;49.084;19.300;2023-04-03T14:59:35;4.00;;;1.60;;
57111;SDS011;42992;49.084;19.300;2023-04-03T15:02:31;3.40;;;1.30;;
57111;SDS011;42992;49.084;19.300;2023-04-03T15:04:58;4.78;;;1.80;;
57111;SDS011;42992;49.084;19.300;2023-04-03T15:07:24;4.65;;;1.80;;
57111;SDS011;42992;49.084;19.300;2023-04-03T15:09:54;4.65;;;1.80;;
57111;SDS011;42992;49.084;19.300;2023-04-03T15:12:29;3.25;;;1.50;;
57111;SDS011;42992;49.084;19.300;2023-04-03T15:15:27;4.38;;;2.00;;
57111;SDS011;42992;49.084;19.300;2023-04-03T15:17:54;3.95;;;1.70;;
57111;SDS011;42992;49.084;19.300;2023-04-03T15:20:20;4.85;;;2.00;;
57111;SDS011;42992;49.084;19.300;2023-04-03T15:22:50;9.68;;;2.15;;
57111;SDS011;42992;49.084;19.300;2023-04-03T15:25:28;3.78;;;1.63;;
57111;SDS011;42992;49.084;19.300;2023-04-03T15:27:57;8.00;;;1.88;;
57111;SDS011;42992;49.084;19.300;2023-04-03T15:30:23;6.30;;;2.20;;
57111;SDS011;42992;49.084;19.300;2023-04-03T15:32:49;5.72;;;2.30;;
57111;SDS011;42992;49.084;19.300;2023-04-03T15:35:16;4.57;;;1.90;;
57111;SDS011;42992;49.084;19.300;2023-04-03T15:37:42;6.22;;;2.15;;
57111;SDS011;42992;49.084;19.300;2023-04-03T15:43:02;9.95;;;5.32;;
57111;SDS011;42992;49.084;19.300;2023-04-03T15:45:28;5.32;;;2.53;;
57111;SDS011;42992;49.084;19.300;2023-04-03T15:47:59;5.85;;;2.05;;
57111;SDS011;42992;49.084;19.300;2023-04-03T15:53:26;5.47;;;2.20;;
57111;SDS011;42992;49.084;19.300;2023-04-03T15:56:11;7.78;;;2.83;;
57111;SDS011;42992;49.084;19.300;2023-04-03T15:58:38;6.15;;;2.20;;
57111;SDS011;42992;49.084;19.300;2023-04-03T16:01:05;5.78;;;2.47;;
57111;SDS011;42992;49.084;19.300;2023-04-03T16:03:31;5.57;;;2.20;;
57111;SDS011;42992;49.084;19.300;2023-04-03T16:05:57;5.50;;;2.13;;
57111;SDS011;42992;49.084;19.300;2023-04-03T16:08:25;5.60;;;2.47;;
57111;SDS011;42992;49.084;19.300;2023-04-03T16:10:52;5.57;;;2.53;;
57111;SDS011;42992;49.084;19.300;2023-04-03T16:13:31;7.35;;;2.33;;
57111;SDS011;42992;49.084;19.300;2023-04-03T16:15:58;4.50;;;2.13;;
57111;SDS011;42992;49.084;19.300;2023-04-03T16:18:25;8.25;;;2.55;;
57111;SDS011;42992;49.084;19.300;2023-04-03T16:20:51;5.35;;;2.70;;
57111;SDS011;42992;49.084;19.300;2023-04-03T16:23:18;5.93;;;2.88;;
57111;SDS011;42992;49.084;19.300;2023-04-03T16:25:43;7.30;;;2.72;;
57111;SDS011;42992;49.084;19.300;2023-04-03T16:28:13;6.43;;;3.10;;
57111;SDS011;42992;49.084;19.300;2023-04-03T16:30:40;6.20;;;2.15;;
57111;SDS011;42992;49.084;19.300;2023-04-03T16:33:06;7.32;;;2.90;;
57111;SDS011;42992;49.084;19.300;2023-04-03T16:35:38;4.75;;;2.20;;
57111;SDS011;42992;49.084;19.300;2023-04-03T16:38:13;7.32;;;3.13;;
57111;SDS011;42992;49.084;19.300;2023-04-03T16:40:43;7.13;;;3.10;;
57111;SDS011;42992;49.084;19.300;2023-04-03T16:43:08;8.73;;;3.22;;
57111;SDS011;42992;49.084;19.300;2023-04-03T16:45:35;9.13;;;3.30;;
57111;SDS011;42992;49.084;19.300;2023-04-03T16:48:02;6.38;;;3.00;;
57111;SDS011;42992;49.084;19.300;2023-04-03T16:50:29;7.18;;;2.72;;
57111;SDS011;42992;49.084;19.300;2023-04-03T16:52:55;8.30;;;3.28;;
57111;SDS011;42992;49.084;19.300;2023-04-03T16:55:36;5.75;;;2.47;;
57111;SDS011;42992;49.084;19.300;2023-04-03T16:58:08;5.60;;;2.28;;
57111;SDS011;42992;49.084;19.300;2023-04-03T17:00:37;7.13;;;2.90;;
57111;SDS011;42992;49.084;19.300;2023-04-03T17:03:06;6.55;;;3.00;;
57111;SDS011;42992;49.084;19.300;2023-04-03T17:05:46;6.38;;;2.55;;
57111;SDS011;42992;49.084;19.300;2023-04-03T17:08:13;6.25;;;2.67;;
57111;SDS011;42992;49.084;19.300;2023-04-03T17:10:41;7.65;;;2.95;;
57111;SDS011;42992;49.084;19.300;2023-04-03T17:13:11;4.97;;;2.42;;
57111;SDS011;42992;49.084;19.300;2023-04-03T17:15:41;8.52;;;2.50;;
57111;SDS011;42992;49.084;19.300;2023-04-03T17:18:12;7.15;;;2.67;;
57111;SDS011;42992;49.084;19.300;2023-04-03T17:20:39;5.68;;;2.70;;
57111;SDS011;42992;49.084;19.300;2023-04-03T17:23:06;10.15;;;3.05;;